createdAt,value
2023-02-12T00:00:03.848Z,966.52
2023-02-12T00:01:01.850Z,966.55
2023-02-12T00:02:01.872Z,966.52
2023-02-12T00:03:01.812Z,966.50
2023-02-12T00:04:01.811Z,966.51
2023-02-12T00:05:01.821Z,966.50
2023-02-12T00:06:01.789Z,966.49
2023-02-12T00:07:01.779Z,966.47
2023-02-12T00:08:01.793Z,966.45
2023-02-12T00:09:01.771Z,966.49
2023-02-12T00:10:01.749Z,966.45
2023-02-12T00:11:01.742Z,966.46
2023-02-12T00:12:01.728Z,966.42
2023-02-12T00:13:01.703Z,966.44
2023-02-12T00:14:01.702Z,966.44
2023-02-12T00:15:01.686Z,966.46
2023-02-12T00:16:01.763Z,966.42
2023-02-12T00:17:01.661Z,966.41
2023-02-12T00:18:01.655Z,966.40
2023-02-12T00:19:01.655Z,966.32
2023-02-12T00:20:01.635Z,966.32
2023-02-12T00:21:01.610Z,966.34
2023-02-12T00:22:01.604Z,966.34
2023-02-12T00:23:01.614Z,966.35
2023-02-12T00:24:01.590Z,966.32
2023-02-12T00:25:01.566Z,966.32
2023-02-12T00:26:01.548Z,966.39
2023-02-12T00:27:01.585Z,966.35
2023-02-12T00:28:01.624Z,966.31
2023-02-12T00:29:01.542Z,966.34
2023-02-12T00:30:01.535Z,966.39
2023-02-12T00:31:01.663Z,966.42
2023-02-12T00:32:01.633Z,966.42
2023-02-12T00:33:01.483Z,966.46
2023-02-12T00:34:01.471Z,966.41
2023-02-12T00:35:01.481Z,966.41
2023-02-12T00:36:01.450Z,966.37
2023-02-12T00:37:01.452Z,966.43
2023-02-12T00:38:01.421Z,966.46
2023-02-12T00:39:01.419Z,966.43
2023-02-12T00:40:01.394Z,966.47
2023-02-12T00:41:01.412Z,966.46
2023-02-12T00:42:01.406Z,966.50
2023-02-12T00:43:01.384Z,966.51
2023-02-12T00:44:01.358Z,966.60
2023-02-12T00:45:01.348Z,966.59
2023-02-12T00:46:01.430Z,966.57
2023-02-12T00:47:01.323Z,966.61
2023-02-12T00:48:01.319Z,966.59
2023-02-12T00:49:01.307Z,966.66
2023-02-12T00:50:01.283Z,966.63
2023-02-12T00:51:01.281Z,966.65
2023-02-12T00:52:01.284Z,966.71
2023-02-12T00:53:01.258Z,966.74
2023-02-12T00:54:01.264Z,966.71
2023-02-12T00:55:01.237Z,966.79
2023-02-12T00:56:01.221Z,966.83
2023-02-12T00:57:01.215Z,966.83
2023-02-12T00:58:01.215Z,966.78
2023-02-12T00:59:01.209Z,966.81
2023-02-12T01:00:01.191Z,966.81
2023-02-12T01:01:01.188Z,966.81
2023-02-12T01:02:01.174Z,966.83
2023-02-12T01:03:01.145Z,966.77
2023-02-12T01:04:01.127Z,966.78
2023-02-12T01:05:01.158Z,966.85
2023-02-12T01:06:01.125Z,966.91
2023-02-12T01:07:01.123Z,966.87
2023-02-12T01:08:01.095Z,966.85
2023-02-12T01:09:01.082Z,966.89
2023-02-12T01:10:01.061Z,966.89
2023-02-12T01:11:01.064Z,966.88
2023-02-12T01:12:01.075Z,966.93
2023-02-12T01:13:01.056Z,966.92
2023-02-12T01:14:01.034Z,966.84
2023-02-12T01:15:01.032Z,966.85
2023-02-12T01:16:01.021Z,966.88
2023-02-12T01:17:01.009Z,966.89
2023-02-12T01:18:01.007Z,966.90
2023-02-12T01:19:00.975Z,966.90
2023-02-12T01:20:00.960Z,966.94
2023-02-12T01:21:00.946Z,966.99
2023-02-12T01:22:00.935Z,966.98
2023-02-12T01:23:00.942Z,966.91
2023-02-12T01:24:00.921Z,966.86
2023-02-12T01:25:00.900Z,966.87
2023-02-12T01:26:00.898Z,966.81
2023-02-12T01:27:00.879Z,966.88
2023-02-12T01:28:00.965Z,966.84
2023-02-12T01:29:00.861Z,966.78
2023-02-12T01:30:00.856Z,966.83
2023-02-12T01:31:01.043Z,966.81
2023-02-12T01:32:00.934Z,966.79
2023-02-12T01:33:00.811Z,966.77
2023-02-12T01:34:00.809Z,966.82
2023-02-12T01:35:00.792Z,966.82
2023-02-12T01:36:00.790Z,966.83
2023-02-12T01:37:00.792Z,966.82
2023-02-12T01:38:00.768Z,966.83
2023-02-12T01:39:00.747Z,966.77
2023-02-12T01:40:00.734Z,966.87
2023-02-12T01:41:00.723Z,966.78
2023-02-12T01:42:00.737Z,966.85
2023-02-12T01:43:00.699Z,966.86
2023-02-12T01:44:00.700Z,966.81
2023-02-12T01:45:00.694Z,966.86
2023-02-12T01:46:03.341Z,966.86
2023-02-12T01:47:00.692Z,966.87
2023-02-12T01:48:00.660Z,966.85
2023-02-12T01:49:00.634Z,966.84
2023-02-12T01:50:00.615Z,966.80
2023-02-12T01:51:00.641Z,966.84
2023-02-12T01:52:00.650Z,966.85
2023-02-12T01:53:00.598Z,966.90
2023-02-12T01:54:00.586Z,966.87
2023-02-12T01:55:00.576Z,966.87
2023-02-12T01:56:00.568Z,966.87
2023-02-12T01:57:00.564Z,966.90
2023-02-12T01:58:00.525Z,966.87
2023-02-12T01:59:00.519Z,966.86
2023-02-12T02:00:00.526Z,966.84
2023-02-12T02:01:00.524Z,966.87
2023-02-12T02:02:00.574Z,966.86
2023-02-12T02:03:00.520Z,966.86
2023-02-12T02:04:00.489Z,966.88
2023-02-12T02:05:00.463Z,966.89
2023-02-12T02:06:00.454Z,966.95
2023-02-12T02:07:00.429Z,966.92
2023-02-12T02:08:00.436Z,966.92
2023-02-12T02:09:00.408Z,966.88
2023-02-12T02:10:00.422Z,966.97
2023-02-12T02:11:00.393Z,966.96
2023-02-12T02:12:00.400Z,966.91
2023-02-12T02:13:00.361Z,966.93
2023-02-12T02:14:00.346Z,966.90
2023-02-12T02:15:00.362Z,966.90
2023-02-12T02:16:00.423Z,966.94
2023-02-12T02:17:00.315Z,966.87
2023-02-12T02:18:00.317Z,966.93
2023-02-12T02:19:00.333Z,966.88
2023-02-12T02:20:00.277Z,966.91
2023-02-12T02:21:00.270Z,966.89
2023-02-12T02:22:00.252Z,966.89
2023-02-12T02:23:00.246Z,966.93
2023-02-12T02:24:00.265Z,966.89
2023-02-12T02:25:00.225Z,966.84
2023-02-12T02:26:00.237Z,966.89
2023-02-12T02:27:00.201Z,966.80
2023-02-12T02:28:00.228Z,966.82
2023-02-12T02:29:00.183Z,966.78
2023-02-12T02:30:00.196Z,966.81
2023-02-12T02:31:00.316Z,966.82
2023-02-12T02:32:00.256Z,966.81
2023-02-12T02:33:00.132Z,966.81
2023-02-12T02:34:00.162Z,966.78
2023-02-12T02:35:00.154Z,966.81
2023-02-12T02:36:00.143Z,966.71
2023-02-12T02:37:01.369Z,966.71
2023-02-12T02:38:00.123Z,966.69
2023-02-12T02:39:00.080Z,966.71
2023-02-12T02:40:00.085Z,966.68
2023-02-12T02:41:00.050Z,966.75
2023-02-12T02:42:00.079Z,966.72
2023-02-12T02:43:00.014Z,966.68
2023-02-12T02:44:00.013Z,966.71
2023-02-12T02:45:00.017Z,966.68
2023-02-12T02:45:59.984Z,966.70
2023-02-12T02:47:00.012Z,966.65
2023-02-12T02:48:00.018Z,966.73
2023-02-12T02:48:59.945Z,966.66
2023-02-12T02:49:59.944Z,966.74
2023-02-12T02:50:59.952Z,966.71
2023-02-12T02:51:59.939Z,966.71
2023-02-12T02:52:59.903Z,966.72
2023-02-12T02:53:59.911Z,966.78
2023-02-12T02:54:59.879Z,966.74
2023-02-12T02:55:59.904Z,966.74
2023-02-12T02:56:59.875Z,966.80
2023-02-12T02:57:59.866Z,966.82
2023-02-12T02:58:59.852Z,966.82
2023-02-12T02:59:59.844Z,966.81
2023-02-12T03:00:59.897Z,966.82
2023-02-12T03:01:59.863Z,966.80
2023-02-12T03:02:59.839Z,966.89
2023-02-12T03:03:59.796Z,966.86
2023-02-12T03:04:59.796Z,966.85
2023-02-12T03:05:59.776Z,966.90
2023-02-12T03:06:59.770Z,966.93
2023-02-12T03:07:59.739Z,966.97
2023-02-12T03:08:59.720Z,966.93
2023-02-12T03:09:59.737Z,966.95
2023-02-12T03:10:59.702Z,966.95
2023-02-12T03:11:59.703Z,966.96
2023-02-12T03:12:59.676Z,966.92
2023-02-12T03:13:59.692Z,966.97
2023-02-12T03:14:59.657Z,966.97
2023-02-12T03:15:59.708Z,966.98
2023-02-12T03:16:59.681Z,967.01
2023-02-12T03:17:59.640Z,966.99
2023-02-12T03:18:59.609Z,967.01
2023-02-12T03:19:59.625Z,967.05
2023-02-12T03:20:59.595Z,967.06
2023-02-12T03:21:59.613Z,967.07
2023-02-12T03:23:00.470Z,967.01
2023-02-12T03:23:59.576Z,967.05
2023-02-12T03:24:59.557Z,967.07
2023-02-12T03:25:59.541Z,967.10
2023-02-12T03:27:02.443Z,967.10
2023-02-12T03:27:59.539Z,967.11
2023-02-12T03:28:59.519Z,967.11
2023-02-12T03:29:59.532Z,967.13
2023-02-12T03:30:59.576Z,967.15
2023-02-12T03:31:59.631Z,967.13
2023-02-12T03:32:59.465Z,967.11
2023-02-12T03:33:59.475Z,967.12
2023-02-12T03:34:59.434Z,967.14
2023-02-12T03:35:59.440Z,967.19
2023-02-12T03:37:07.083Z,967.14
2023-02-12T03:37:59.418Z,967.20
2023-02-12T03:38:59.432Z,967.21
2023-02-12T03:39:59.412Z,967.18
2023-02-12T03:40:59.426Z,967.17
2023-02-12T03:42:08.366Z,967.14
2023-02-12T03:43:07.045Z,967.19
2023-02-12T03:43:59.353Z,967.19
2023-02-12T03:44:59.327Z,967.22
2023-02-12T03:45:59.691Z,967.22
2023-02-12T03:46:59.334Z,967.21
2023-02-12T03:47:59.307Z,967.24
2023-02-12T03:48:59.283Z,967.23
2023-02-12T03:49:59.284Z,967.28
2023-02-12T03:50:59.256Z,967.31
2023-02-12T03:51:59.278Z,967.32
2023-02-12T03:52:59.266Z,967.33
2023-02-12T03:53:59.230Z,967.34
2023-02-12T03:54:59.232Z,967.33
2023-02-12T03:55:59.205Z,967.32
2023-02-12T03:56:59.210Z,967.38
2023-02-12T03:57:59.183Z,967.37
2023-02-12T03:58:59.175Z,967.31
2023-02-12T03:59:59.200Z,967.37
2023-02-12T04:00:59.166Z,967.41
2023-02-12T04:01:59.260Z,967.35
2023-02-12T04:02:59.151Z,967.38
2023-02-12T04:03:59.165Z,967.42
2023-02-12T04:04:59.133Z,967.43
2023-02-12T04:05:59.134Z,967.47
2023-02-12T04:06:59.156Z,967.48
2023-02-12T04:07:59.069Z,967.50
2023-02-12T04:08:59.048Z,967.52
2023-02-12T04:09:59.049Z,967.48
2023-02-12T04:10:59.054Z,967.46
2023-02-12T04:11:59.052Z,967.50
2023-02-12T04:12:59.008Z,967.53
2023-02-12T04:13:59.003Z,967.50
2023-02-12T04:14:58.990Z,967.55
2023-02-12T04:15:58.984Z,967.55
2023-02-12T04:16:59.074Z,967.53
2023-02-12T04:17:58.973Z,967.52
2023-02-12T04:18:58.942Z,967.54
2023-02-12T04:19:58.938Z,967.52
2023-02-12T04:20:58.942Z,967.54
2023-02-12T04:21:58.913Z,967.54
2023-02-12T04:22:58.900Z,967.57
2023-02-12T04:23:58.888Z,967.60
2023-02-12T04:24:58.873Z,967.56
2023-02-12T04:25:59.144Z,967.61
2023-02-12T04:26:58.879Z,967.64
2023-02-12T04:27:58.902Z,967.63
2023-02-12T04:28:58.859Z,967.63
2023-02-12T04:29:58.828Z,967.60
2023-02-12T04:30:58.939Z,967.63
2023-02-12T04:31:58.809Z,967.65
2023-02-12T04:32:58.808Z,967.64
2023-02-12T04:33:58.785Z,967.63
2023-02-12T04:34:58.781Z,967.59
2023-02-12T04:35:58.761Z,967.55
2023-02-12T04:36:58.745Z,967.57
2023-02-12T04:37:58.757Z,967.64
2023-02-12T04:38:58.727Z,967.60
2023-02-12T04:39:58.720Z,967.59
2023-02-12T04:40:58.728Z,967.63
2023-02-12T04:41:58.713Z,967.68
2023-02-12T04:42:58.724Z,967.70
2023-02-12T04:43:58.678Z,967.66
2023-02-12T04:44:58.668Z,967.72
2023-02-12T04:45:58.954Z,967.70
2023-02-12T04:46:58.652Z,967.65
2023-02-12T04:47:58.656Z,967.65
2023-02-12T04:48:58.731Z,967.68
2023-02-12T04:49:58.617Z,967.69
2023-02-12T04:50:58.618Z,967.67
2023-02-12T04:51:58.595Z,967.72
2023-02-12T04:52:58.601Z,967.67
2023-02-12T04:53:58.608Z,967.71
2023-02-12T04:54:58.553Z,967.70
2023-02-12T04:55:58.682Z,967.68
2023-02-12T04:56:58.525Z,967.69
2023-02-12T04:57:58.552Z,967.74
2023-02-12T04:58:58.543Z,967.73
2023-02-12T04:59:58.500Z,967.67
2023-02-12T05:00:58.555Z,967.69
2023-02-12T05:01:58.504Z,967.69
2023-02-12T05:02:58.457Z,967.67
2023-02-12T05:03:59.377Z,967.69
2023-02-12T05:04:58.487Z,967.72
2023-02-12T05:05:58.429Z,967.71
2023-02-12T05:06:58.433Z,967.73
2023-02-12T05:07:58.442Z,967.73
2023-02-12T05:08:58.399Z,967.69
2023-02-12T05:09:58.387Z,967.75
2023-02-12T05:10:58.401Z,967.70
2023-02-12T05:11:58.366Z,967.71
2023-02-12T05:12:58.346Z,967.70
2023-02-12T05:13:58.345Z,967.71
2023-02-12T05:14:58.370Z,967.68
2023-02-12T05:15:58.664Z,967.72
2023-02-12T05:16:58.305Z,967.71
2023-02-12T05:17:58.303Z,967.71
2023-02-12T05:18:58.281Z,967.70
2023-02-12T05:19:58.280Z,967.72
2023-02-12T05:20:58.274Z,967.67
2023-02-12T05:21:58.288Z,967.73
2023-02-12T05:22:58.240Z,967.69
2023-02-12T05:23:58.237Z,967.74
2023-02-12T05:24:58.230Z,967.75
2023-02-12T05:25:58.211Z,967.73
2023-02-12T05:26:58.215Z,967.72
2023-02-12T05:27:58.245Z,967.74
2023-02-12T05:28:58.171Z,967.78
2023-02-12T05:29:58.166Z,967.76
2023-02-12T05:30:58.226Z,967.79
2023-02-12T05:31:58.381Z,967.83
2023-02-12T05:32:58.127Z,967.82
2023-02-12T05:33:58.168Z,967.83
2023-02-12T05:34:58.121Z,967.87
2023-02-12T05:35:58.098Z,967.83
2023-02-12T05:36:58.081Z,967.82
2023-02-12T05:37:58.078Z,967.85
2023-02-12T05:38:58.086Z,967.88
2023-02-12T05:39:58.071Z,967.88
2023-02-12T05:40:58.038Z,967.87
2023-02-12T05:41:58.047Z,967.91
2023-02-12T05:42:58.040Z,967.90
2023-02-12T05:43:58.014Z,967.88
2023-02-12T05:44:57.990Z,967.93
2023-02-12T05:45:58.283Z,967.98
2023-02-12T05:46:57.992Z,968.01
2023-02-12T05:47:57.962Z,967.99
2023-02-12T05:48:57.970Z,968.01
2023-02-12T05:49:57.943Z,968.02
2023-02-12T05:50:57.921Z,967.99
2023-02-12T05:51:57.936Z,968.04
2023-02-12T05:52:57.913Z,968.04
2023-02-12T05:53:57.917Z,968.12
2023-02-12T05:54:57.897Z,968.04
2023-02-12T05:55:57.884Z,968.06
2023-02-12T05:56:57.857Z,968.08
2023-02-12T05:57:57.863Z,968.12
2023-02-12T05:58:57.831Z,968.10
2023-02-12T05:59:57.847Z,968.14
2023-02-12T06:00:57.813Z,968.14
2023-02-12T06:01:57.808Z,968.12
2023-02-12T06:02:57.917Z,968.13
2023-02-12T06:03:57.825Z,968.16
2023-02-12T06:04:57.788Z,968.15
2023-02-12T06:05:58.094Z,968.16
2023-02-12T06:06:57.742Z,968.15
2023-02-12T06:07:57.741Z,968.15
2023-02-12T06:08:57.731Z,968.20
2023-02-12T06:09:57.772Z,968.14
2023-02-12T06:10:57.698Z,968.15
2023-02-12T06:11:57.701Z,968.18
2023-02-12T06:12:57.700Z,968.16
2023-02-12T06:13:57.667Z,968.18
2023-02-12T06:14:57.675Z,968.16
2023-02-12T06:15:58.190Z,968.15
2023-02-12T06:16:57.632Z,968.13
2023-02-12T06:17:57.629Z,968.12
2023-02-12T06:18:57.657Z,968.11
2023-02-12T06:19:57.653Z,968.13
2023-02-12T06:20:57.590Z,968.17
2023-02-12T06:21:57.589Z,968.16
2023-02-12T06:22:57.564Z,968.11
2023-02-12T06:23:57.565Z,968.14
2023-02-12T06:24:57.562Z,968.18
2023-02-12T06:25:57.974Z,968.16
2023-02-12T06:26:57.512Z,968.17
2023-02-12T06:27:57.614Z,968.21
2023-02-12T06:28:57.494Z,968.21
2023-02-12T06:29:57.518Z,968.27
2023-02-12T06:30:57.582Z,968.32
2023-02-12T06:31:57.612Z,968.29
2023-02-12T06:32:57.453Z,968.31
2023-02-12T06:33:57.478Z,968.38
2023-02-12T06:34:57.457Z,968.36
2023-02-12T06:35:57.757Z,968.33
2023-02-12T06:36:57.425Z,968.30
2023-02-12T06:37:57.406Z,968.27
2023-02-12T06:38:57.405Z,968.34
2023-02-12T06:39:57.397Z,968.32
2023-02-12T06:40:57.527Z,968.32
2023-02-12T06:41:57.390Z,968.32
2023-02-12T06:42:57.346Z,968.34
2023-02-12T06:43:57.332Z,968.35
2023-02-12T06:44:59.872Z,968.38
2023-02-12T06:45:57.617Z,968.37
2023-02-12T06:46:57.475Z,968.40
2023-02-12T06:47:57.295Z,968.42
2023-02-12T06:48:57.281Z,968.41
2023-02-12T06:49:57.264Z,968.42
2023-02-12T06:50:57.309Z,968.43
2023-02-12T06:51:57.252Z,968.46
2023-02-12T06:52:57.237Z,968.40
2023-02-12T06:53:57.238Z,968.45
2023-02-12T06:54:57.216Z,968.46
2023-02-12T06:55:57.501Z,968.48
2023-02-12T06:56:57.213Z,968.50
2023-02-12T06:57:57.186Z,968.48
2023-02-12T06:58:57.169Z,968.50
2023-02-12T06:59:57.179Z,968.49
2023-02-12T07:00:57.366Z,968.52
2023-02-12T07:01:57.132Z,968.45
2023-02-12T07:02:57.123Z,968.49
2023-02-12T07:03:57.215Z,968.48
2023-02-12T07:04:57.103Z,968.46
2023-02-12T07:05:57.493Z,968.42
2023-02-12T07:06:57.123Z,968.44
2023-02-12T07:07:57.080Z,968.52
2023-02-12T07:08:57.057Z,968.49
2023-02-12T07:09:57.079Z,968.52
2023-02-12T07:10:57.033Z,968.57
2023-02-12T07:11:57.044Z,968.54
2023-02-12T07:12:57.018Z,968.60
2023-02-12T07:13:56.998Z,968.60
2023-02-12T07:14:56.986Z,968.63
2023-02-12T07:15:57.323Z,968.63
2023-02-12T07:16:57.537Z,968.60
2023-02-12T07:17:56.988Z,968.62
2023-02-12T07:18:56.953Z,968.58
2023-02-12T07:19:56.926Z,968.58
2023-02-12T07:20:56.927Z,968.60
2023-02-12T07:21:56.911Z,968.63
2023-02-12T07:22:56.935Z,968.62
2023-02-12T07:23:56.926Z,968.60
2023-02-12T07:24:56.874Z,968.66
2023-02-12T07:25:57.269Z,968.64
2023-02-12T07:26:56.884Z,968.66
2023-02-12T07:27:56.853Z,968.69
2023-02-12T07:28:56.853Z,968.72
2023-02-12T07:29:56.816Z,968.73
2023-02-12T07:30:56.883Z,968.70
2023-02-12T07:31:56.879Z,968.68
2023-02-12T07:32:56.806Z,968.73
2023-02-12T07:33:56.806Z,968.62
2023-02-12T07:34:56.765Z,968.63
2023-02-12T07:35:57.176Z,968.70
2023-02-12T07:36:56.740Z,968.69
2023-02-12T07:37:56.726Z,968.68
2023-02-12T07:38:56.780Z,968.73
2023-02-12T07:39:56.712Z,968.74
2023-02-12T07:40:56.720Z,968.72
2023-02-12T07:41:56.719Z,968.69
2023-02-12T07:42:56.681Z,968.75
2023-02-12T07:43:56.667Z,968.72
2023-02-12T07:44:56.683Z,968.69
2023-02-12T07:45:57.040Z,968.73
2023-02-12T07:46:56.697Z,968.83
2023-02-12T07:47:56.611Z,968.78
2023-02-12T07:48:56.630Z,968.81
2023-02-12T07:49:56.589Z,968.84
2023-02-12T07:50:56.594Z,968.84
2023-02-12T07:51:56.584Z,968.81
2023-02-12T07:52:56.564Z,968.82
2023-02-12T07:53:56.569Z,968.84
2023-02-12T07:54:56.575Z,968.81
2023-02-12T07:55:56.983Z,968.85
2023-02-12T07:56:56.523Z,968.83
2023-02-12T07:57:56.522Z,968.80
2023-02-12T07:58:56.527Z,968.81
2023-02-12T07:59:56.483Z,968.91
2023-02-12T08:00:56.475Z,968.80
2023-02-12T08:01:56.592Z,968.87
2023-02-12T08:02:56.455Z,968.89
2023-02-12T08:03:56.485Z,968.82
2023-02-12T08:04:57.001Z,968.86
2023-02-12T08:05:56.898Z,968.91
2023-02-12T08:06:56.432Z,968.87
2023-02-12T08:07:56.398Z,968.88
2023-02-12T08:08:56.397Z,968.89
2023-02-12T08:09:56.446Z,968.93
2023-02-12T08:10:56.397Z,969.00
2023-02-12T08:11:56.352Z,969.00
2023-02-12T08:12:56.346Z,968.94
2023-02-12T08:13:56.347Z,969.00
2023-02-12T08:14:56.334Z,968.97
2023-02-12T08:15:56.710Z,969.05
2023-02-12T08:16:56.377Z,969.02
2023-02-12T08:17:56.297Z,969.07
2023-02-12T08:19:02.385Z,969.05
2023-02-12T08:19:57.367Z,969.01
2023-02-12T08:20:56.255Z,969.03
2023-02-12T08:21:59.009Z,969.03
2023-02-12T08:22:56.243Z,969.03
2023-02-12T08:23:56.216Z,969.01
2023-02-12T08:24:56.220Z,969.03
2023-02-12T08:25:56.525Z,969.00
2023-02-12T08:26:56.376Z,969.02
2023-02-12T08:27:56.230Z,968.99
2023-02-12T08:28:56.323Z,969.03
2023-02-12T08:29:56.227Z,969.04
2023-02-12T08:30:56.308Z,969.04
2023-02-12T08:31:56.187Z,969.04
2023-02-12T08:32:56.122Z,969.06
2023-02-12T08:33:56.123Z,969.03
2023-02-12T08:34:56.114Z,969.03
2023-02-12T08:35:59.371Z,969.04
2023-02-12T08:36:56.075Z,969.03
2023-02-12T08:37:56.081Z,969.05
2023-02-12T08:38:56.081Z,969.05
2023-02-12T08:39:56.061Z,969.03
2023-02-12T08:40:56.050Z,969.03
2023-02-12T08:41:56.019Z,969.04
2023-02-12T08:42:56.039Z,969.06
2023-02-12T08:43:56.017Z,969.04
2023-02-12T08:44:56.000Z,969.02
2023-02-12T08:45:56.401Z,969.08
2023-02-12T08:46:55.962Z,969.06
2023-02-12T08:47:55.946Z,969.03
2023-02-12T08:48:55.960Z,969.06
2023-02-12T08:49:55.950Z,969.06
2023-02-12T08:50:55.929Z,969.05
2023-02-12T08:51:55.943Z,969.12
2023-02-12T08:52:55.917Z,969.10
2023-02-12T08:53:55.880Z,969.09
2023-02-12T08:54:55.873Z,969.12
2023-02-12T08:55:56.162Z,969.12
2023-02-12T08:56:55.872Z,969.17
2023-02-12T08:57:55.842Z,969.24
2023-02-12T08:58:55.875Z,969.20
2023-02-12T08:59:55.806Z,969.25
2023-02-12T09:00:55.835Z,969.27
2023-02-12T09:01:55.809Z,969.30
2023-02-12T09:02:55.827Z,969.25
2023-02-12T09:03:55.762Z,969.30
2023-02-12T09:04:55.756Z,969.29
2023-02-12T09:05:56.244Z,969.32
2023-02-12T09:06:55.765Z,969.32
2023-02-12T09:07:55.726Z,969.34
2023-02-12T09:08:55.759Z,969.33
2023-02-12T09:09:55.694Z,969.31
2023-02-12T09:10:55.698Z,969.34
2023-02-12T09:11:55.695Z,969.39
2023-02-12T09:12:55.672Z,969.40
2023-02-12T09:13:55.648Z,969.39
2023-02-12T09:14:55.667Z,969.40
2023-02-12T09:15:56.010Z,969.43
2023-02-12T09:16:55.700Z,969.43
2023-02-12T09:17:55.609Z,969.40
2023-02-12T09:18:55.617Z,969.41
2023-02-12T09:19:55.602Z,969.45
2023-02-12T09:20:55.576Z,969.46
2023-02-12T09:21:56.479Z,969.44
2023-02-12T09:22:55.578Z,969.48
2023-02-12T09:23:55.540Z,969.43
2023-02-12T09:24:55.547Z,969.52
2023-02-12T09:25:55.803Z,969.52
2023-02-12T09:26:55.539Z,969.54
2023-02-12T09:27:55.513Z,969.51
2023-02-12T09:28:55.517Z,969.52
2023-02-12T09:29:55.471Z,969.53
2023-02-12T09:30:55.638Z,969.49
2023-02-12T09:31:55.618Z,969.52
2023-02-12T09:32:55.456Z,969.55
2023-02-12T09:33:55.535Z,969.61
2023-02-12T09:34:55.440Z,969.60
2023-02-12T09:35:55.739Z,969.68
2023-02-12T09:36:55.400Z,969.64
2023-02-12T09:37:55.377Z,969.67
2023-02-12T09:38:55.397Z,969.66
2023-02-12T09:39:55.364Z,969.69
2023-02-12T09:40:55.363Z,969.67
2023-02-12T09:41:55.378Z,969.67
2023-02-12T09:42:55.359Z,969.63
2023-02-12T09:43:55.326Z,969.71
2023-02-12T09:44:55.337Z,969.70
2023-02-12T09:45:55.777Z,969.70
2023-02-12T09:46:55.328Z,969.73
2023-02-12T09:47:55.334Z,969.74
2023-02-12T09:48:57.312Z,969.75
2023-02-12T09:49:55.295Z,969.71
2023-02-12T09:50:55.244Z,969.76
2023-02-12T09:51:55.241Z,969.75
2023-02-12T09:52:55.288Z,969.77
2023-02-12T09:53:55.237Z,969.73
2023-02-12T09:54:56.489Z,969.73
2023-02-12T09:55:55.498Z,969.69
2023-02-12T09:56:55.195Z,969.70
2023-02-12T09:57:55.152Z,969.68
2023-02-12T09:58:55.174Z,969.73
2023-02-12T09:59:55.160Z,969.72
2023-02-12T10:00:55.130Z,969.75
2023-02-12T10:01:55.112Z,969.77
2023-02-12T10:02:55.152Z,969.75
2023-02-12T10:03:55.417Z,969.77
2023-02-12T10:05:01.496Z,969.77
2023-02-12T10:05:56.369Z,969.78
2023-02-12T10:06:55.067Z,969.77
2023-02-12T10:07:55.089Z,969.79
2023-02-12T10:08:55.041Z,969.76
2023-02-12T10:09:55.041Z,969.78
2023-02-12T10:10:55.040Z,969.80
2023-02-12T10:11:55.022Z,969.81
2023-02-12T10:12:54.996Z,969.79
2023-02-12T10:13:55.000Z,969.82
2023-02-12T10:14:54.967Z,969.80
2023-02-12T10:15:55.511Z,969.82
2023-02-12T10:16:54.951Z,969.85
2023-02-12T10:17:54.961Z,969.84
2023-02-12T10:18:54.984Z,969.80
2023-02-12T10:19:54.913Z,969.86
2023-02-12T10:20:55.251Z,969.82
2023-02-12T10:21:54.905Z,969.89
2023-02-12T10:22:57.108Z,969.88
2023-02-12T10:23:54.886Z,969.91
2023-02-12T10:24:54.884Z,969.92
2023-02-12T10:25:54.871Z,969.91
2023-02-12T10:26:54.832Z,969.89
2023-02-12T10:27:54.863Z,969.95
2023-02-12T10:28:54.815Z,969.90
2023-02-12T10:29:54.793Z,969.91
2023-02-12T10:30:54.901Z,969.90
2023-02-12T10:31:54.975Z,969.88
2023-02-12T10:32:54.785Z,969.87
2023-02-12T10:33:54.768Z,969.88
2023-02-12T10:34:54.761Z,969.90
2023-02-12T10:35:55.062Z,969.92
2023-02-12T10:36:54.734Z,969.94
2023-02-12T10:37:54.706Z,969.89
2023-02-12T10:38:54.737Z,969.85
2023-02-12T10:39:54.706Z,969.86
2023-02-12T10:40:54.678Z,969.85
2023-02-12T10:41:54.653Z,969.87
2023-02-12T10:42:54.655Z,969.87
2023-02-12T10:43:54.641Z,969.86
2023-02-12T10:44:54.649Z,969.82
2023-02-12T10:45:54.946Z,969.91
2023-02-12T10:46:54.610Z,969.87
2023-02-12T10:47:54.601Z,969.88
2023-02-12T10:48:54.576Z,969.85
2023-02-12T10:49:54.579Z,969.84
2023-02-12T10:50:54.598Z,969.88
2023-02-12T10:51:54.554Z,969.85
2023-02-12T10:52:54.550Z,969.83
2023-02-12T10:54:02.935Z,969.89
2023-02-12T10:54:54.687Z,969.84
2023-02-12T10:55:54.970Z,969.81
2023-02-12T10:56:54.734Z,969.83
2023-02-12T10:58:04.655Z,969.81
2023-02-12T10:58:54.657Z,969.78
2023-02-12T10:59:54.617Z,969.79
2023-02-12T11:00:54.486Z,969.78
2023-02-12T11:01:54.609Z,969.77
2023-02-12T11:02:54.448Z,969.77
2023-02-12T11:03:54.432Z,969.77
2023-02-12T11:04:54.594Z,969.81
2023-02-12T11:05:54.887Z,969.79
2023-02-12T11:06:54.388Z,969.81
2023-02-12T11:07:54.387Z,969.81
2023-02-12T11:08:54.372Z,969.80
2023-02-12T11:09:54.336Z,969.81
2023-02-12T11:10:54.322Z,969.80
2023-02-12T11:11:54.344Z,969.83
2023-02-12T11:12:54.319Z,969.84
2023-02-12T11:13:54.311Z,969.80
2023-02-12T11:14:54.276Z,969.85
2023-02-12T11:15:54.320Z,969.83
2023-02-12T11:16:54.270Z,969.83
2023-02-12T11:17:54.263Z,969.81
2023-02-12T11:18:54.263Z,969.80
2023-02-12T11:19:54.250Z,969.78
2023-02-12T11:20:54.209Z,969.80
2023-02-12T11:21:54.219Z,969.77
2023-02-12T11:22:54.205Z,969.78
2023-02-12T11:23:54.208Z,969.76
2023-02-12T11:24:54.187Z,969.73
2023-02-12T11:25:54.674Z,969.73
2023-02-12T11:26:54.135Z,969.71
2023-02-12T11:27:55.431Z,969.68
2023-02-12T11:28:54.236Z,969.67
2023-02-12T11:29:54.142Z,969.63
2023-02-12T11:30:54.169Z,969.65
2023-02-12T11:31:54.145Z,969.64
2023-02-12T11:32:54.074Z,969.67
2023-02-12T11:33:54.064Z,969.62
2023-02-12T11:34:54.060Z,969.64
2023-02-12T11:35:54.067Z,969.63
2023-02-12T11:36:54.038Z,969.61
2023-02-12T11:37:54.022Z,969.64
2023-02-12T11:38:54.040Z,969.63
2023-02-12T11:39:54.006Z,969.62
2023-02-12T11:40:53.977Z,969.64
2023-02-12T11:41:54.000Z,969.66
2023-02-12T11:42:53.977Z,969.65
2023-02-12T11:43:53.962Z,969.62
2023-02-12T11:44:53.936Z,969.61
2023-02-12T11:45:53.931Z,969.66
2023-02-12T11:46:53.964Z,969.63
2023-02-12T11:47:53.925Z,969.65
2023-02-12T11:49:02.671Z,969.62
2023-02-12T11:49:53.920Z,969.61
2023-02-12T11:50:53.894Z,969.61
2023-02-12T11:51:53.907Z,969.55
2023-02-12T11:52:53.846Z,969.58
2023-02-12T11:53:53.882Z,969.58
2023-02-12T11:54:53.857Z,969.60
2023-02-12T11:55:53.845Z,969.59
2023-02-12T11:56:53.820Z,969.58
2023-02-12T11:57:53.800Z,969.59
2023-02-12T11:58:53.798Z,969.58
2023-02-12T11:59:53.799Z,969.59
2023-02-12T12:00:53.772Z,969.66
2023-02-12T12:01:53.768Z,969.64
2023-02-12T12:02:53.769Z,969.61
2023-02-12T12:03:53.749Z,969.62
2023-02-12T12:04:53.736Z,969.61
2023-02-12T12:05:54.022Z,969.58
2023-02-12T12:06:53.714Z,969.61
2023-02-12T12:07:53.694Z,969.61
2023-02-12T12:08:53.678Z,969.55
2023-02-12T12:09:53.694Z,969.55
2023-02-12T12:10:53.697Z,969.56
2023-02-12T12:11:53.648Z,969.57
2023-02-12T12:12:53.634Z,969.58
2023-02-12T12:13:53.612Z,969.56
2023-02-12T12:14:53.619Z,969.55
2023-02-12T12:15:53.866Z,969.61
2023-02-12T12:16:53.589Z,969.61
2023-02-12T12:17:53.644Z,969.62
2023-02-12T12:18:53.557Z,969.62
2023-02-12T12:19:53.580Z,969.62
2023-02-12T12:20:53.636Z,969.66
2023-02-12T12:21:53.578Z,969.65
2023-02-12T12:22:53.518Z,969.61
2023-02-12T12:23:53.501Z,969.60
2023-02-12T12:24:53.568Z,969.63
2023-02-12T12:25:53.639Z,969.66
2023-02-12T12:26:53.480Z,969.65
2023-02-12T12:27:53.474Z,969.62